sensor_id;sensor_type;location;lat;lon;timestamp;P1;durP1;ratioP1;P2;durP2;ratioP2
50433;SDS011;36361;38.954;-9.002;2023-06-26T00:00:52;12.50;;;3.30;;
50433;SDS011;36361;38.954;-9.002;2023-06-26T00:02:11;8.75;;;3.13;;
50433;SDS011;36361;38.954;-9.002;2023-06-26T00:03:30;10.50;;;4.18;;
50433;SDS011;36361;38.954;-9.002;2023-06-26T00:04:37;12.70;;;3.85;;
50433;SDS011;36361;38.954;-9.002;2023-06-26T00:05:44;13.93;;;3.60;;
50433;SDS011;36361;38.954;-9.002;2023-06-26T00:06:53;10.95;;;3.97;;
50433;SDS011;36361;38.954;-9.002;2023-06-26T00:08:06;11.55;;;3.67;;
50433;SDS011;36361;38.954;-9.002;2023-06-26T00:09:22;12.45;;;3.33;;
50433;SDS011;36361;38.954;-9.002;2023-06-26T00:10:29;6.55;;;2.70;;
50433;SDS011;36361;38.954;-9.002;2023-06-26T00:11:42;8.60;;;3.05;;
50433;SDS011;36361;38.954;-9.002;2023-06-26T00:12:55;10.50;;;2.80;;
50433;SDS011;36361;38.954;-9.002;2023-06-26T00:14:12;6.75;;;2.70;;
50433;SDS011;36361;38.954;-9.002;2023-06-26T00:15:22;11.50;;;3.63;;
50433;SDS011;36361;38.954;-9.002;2023-06-26T00:16:44;11.52;;;3.78;;
50433;SDS011;36361;38.954;-9.002;2023-06-26T00:18:09;10.02;;;3.13;;
50433;SDS011;36361;38.954;-9.002;2023-06-26T00:19:23;7.68;;;2.83;;
50433;SDS011;36361;38.954;-9.002;2023-06-26T00:20:30;8.13;;;2.47;;
50433;SDS011;36361;38.954;-9.002;2023-06-26T00:21:49;13.45;;;3.25;;
50433;SDS011;36361;38.954;-9.002;2023-06-26T00:22:56;8.07;;;2.90;;
50433;SDS011;36361;38.954;-9.002;2023-06-26T00:24:05;5.00;;;2.08;;
50433;SDS011;36361;38.954;-9.002;2023-06-26T00:25:13;9.32;;;3.25;;
50433;SDS011;36361;38.954;-9.002;2023-06-26T00:26:38;8.60;;;3.65;;
50433;SDS011;36361;38.954;-9.002;2023-06-26T00:27:47;8.18;;;3.13;;
50433;SDS011;36361;38.954;-9.002;2023-06-26T00:29:03;10.55;;;3.00;;
50433;SDS011;36361;38.954;-9.002;2023-06-26T00:30:13;9.90;;;3.20;;
50433;SDS011;36361;38.954;-9.002;2023-06-26T00:31:23;8.48;;;3.13;;
50433;SDS011;36361;38.954;-9.002;2023-06-26T00:32:35;9.07;;;3.60;;
50433;SDS011;36361;38.954;-9.002;2023-06-26T00:33:51;12.25;;;4.10;;
50433;SDS011;36361;38.954;-9.002;2023-06-26T00:34:57;11.82;;;3.58;;
50433;SDS011;36361;38.954;-9.002;2023-06-26T00:36:35;11.77;;;3.22;;
50433;SDS011;36361;38.954;-9.002;2023-06-26T00:37:48;8.90;;;2.92;;
50433;SDS011;36361;38.954;-9.002;2023-06-26T00:38:52;7.40;;;2.95;;
50433;SDS011;36361;38.954;-9.002;2023-06-26T00:39:59;6.18;;;2.40;;
50433;SDS011;36361;38.954;-9.002;2023-06-26T00:41:15;9.27;;;3.13;;
50433;SDS011;36361;38.954;-9.002;2023-06-26T00:42:22;7.82;;;3.25;;
50433;SDS011;36361;38.954;-9.002;2023-06-26T00:43:28;9.18;;;3.25;;
50433;SDS011;36361;38.954;-9.002;2023-06-26T00:44:44;6.60;;;2.35;;
50433;SDS011;36361;38.954;-9.002;2023-06-26T00:45:57;10.15;;;3.42;;
50433;SDS011;36361;38.954;-9.002;2023-06-26T00:47:04;11.80;;;4.20;;
50433;SDS011;36361;38.954;-9.002;2023-06-26T00:48:20;9.48;;;3.50;;
50433;SDS011;36361;38.954;-9.002;2023-06-26T00:49:27;7.60;;;2.80;;
50433;SDS011;36361;38.954;-9.002;2023-06-26T00:50:50;11.40;;;3.83;;
50433;SDS011;36361;38.954;-9.002;2023-06-26T00:51:54;8.38;;;2.70;;
50433;SDS011;36361;38.954;-9.002;2023-06-26T00:52:57;10.65;;;3.08;;
50433;SDS011;36361;38.954;-9.002;2023-06-26T00:54:17;10.10;;;3.45;;
50433;SDS011;36361;38.954;-9.002;2023-06-26T00:55:31;8.27;;;2.35;;
50433;SDS011;36361;38.954;-9.002;2023-06-26T00:56:36;11.05;;;3.35;;
50433;SDS011;36361;38.954;-9.002;2023-06-26T00:57:49;6.75;;;3.47;;
50433;SDS011;36361;38.954;-9.002;2023-06-26T00:59:02;8.35;;;3.15;;
50433;SDS011;36361;38.954;-9.002;2023-06-26T01:01:35;6.95;;;2.65;;
50433;SDS011;36361;38.954;-9.002;2023-06-26T01:02:57;8.80;;;2.92;;
50433;SDS011;36361;38.954;-9.002;2023-06-26T01:04:01;13.43;;;4.30;;
50433;SDS011;36361;38.954;-9.002;2023-06-26T01:05:17;7.72;;;2.72;;
50433;SDS011;36361;38.954;-9.002;2023-06-26T01:06:37;12.23;;;3.50;;
50433;SDS011;36361;38.954;-9.002;2023-06-26T01:07:41;14.68;;;4.20;;
50433;SDS011;36361;38.954;-9.002;2023-06-26T01:08:52;12.93;;;4.07;;
50433;SDS011;36361;38.954;-9.002;2023-06-26T01:10:06;12.45;;;4.03;;
50433;SDS011;36361;38.954;-9.002;2023-06-26T01:11:22;11.50;;;3.70;;
50433;SDS011;36361;38.954;-9.002;2023-06-26T01:12:29;12.25;;;4.32;;
50433;SDS011;36361;38.954;-9.002;2023-06-26T01:13:33;10.13;;;2.95;;
50433;SDS011;36361;38.954;-9.002;2023-06-26T01:15:58;11.60;;;3.88;;
50433;SDS011;36361;38.954;-9.002;2023-06-26T01:17:05;12.90;;;3.90;;
50433;SDS011;36361;38.954;-9.002;2023-06-26T01:18:08;10.13;;;3.40;;
50433;SDS011;36361;38.954;-9.002;2023-06-26T01:19:14;10.45;;;4.00;;
50433;SDS011;36361;38.954;-9.002;2023-06-26T01:20:25;13.50;;;4.10;;
50433;SDS011;36361;38.954;-9.002;2023-06-26T01:21:43;19.52;;;4.50;;
50433;SDS011;36361;38.954;-9.002;2023-06-26T01:24:19;9.23;;;3.50;;
50433;SDS011;36361;38.954;-9.002;2023-06-26T01:27:02;7.80;;;3.08;;
50433;SDS011;36361;38.954;-9.002;2023-06-26T01:28:34;8.98;;;2.75;;
50433;SDS011;36361;38.954;-9.002;2023-06-26T01:29:44;15.20;;;3.97;;
50433;SDS011;36361;38.954;-9.002;2023-06-26T01:30:51;12.35;;;4.50;;
50433;SDS011;36361;38.954;-9.002;2023-06-26T01:32:05;9.27;;;3.88;;
50433;SDS011;36361;38.954;-9.002;2023-06-26T01:33:16;13.00;;;4.15;;
50433;SDS011;36361;38.954;-9.002;2023-06-26T01:34:19;16.73;;;4.80;;
50433;SDS011;36361;38.954;-9.002;2023-06-26T01:35:33;13.63;;;4.43;;
50433;SDS011;36361;38.954;-9.002;2023-06-26T01:36:40;9.27;;;3.25;;
50433;SDS011;36361;38.954;-9.002;2023-06-26T01:38:25;10.27;;;3.88;;
50433;SDS011;36361;38.954;-9.002;2023-06-26T01:39:31;8.55;;;3.33;;
50433;SDS011;36361;38.954;-9.002;2023-06-26T01:40:44;8.30;;;3.05;;
50433;SDS011;36361;38.954;-9.002;2023-06-26T01:41:51;10.35;;;3.05;;
50433;SDS011;36361;38.954;-9.002;2023-06-26T01:42:55;12.20;;;3.65;;
50433;SDS011;36361;38.954;-9.002;2023-06-26T01:45:35;9.50;;;3.63;;
50433;SDS011;36361;38.954;-9.002;2023-06-26T01:47:07;8.15;;;2.78;;
50433;SDS011;36361;38.954;-9.002;2023-06-26T01:48:30;10.80;;;3.38;;
50433;SDS011;36361;38.954;-9.002;2023-06-26T01:49:49;9.85;;;3.20;;
50433;SDS011;36361;38.954;-9.002;2023-06-26T01:51:09;9.30;;;3.38;;
50433;SDS011;36361;38.954;-9.002;2023-06-26T01:53:50;9.00;;;3.25;;
50433;SDS011;36361;38.954;-9.002;2023-06-26T01:55:12;8.68;;;3.10;;
50433;SDS011;36361;38.954;-9.002;2023-06-26T01:56:36;6.90;;;3.63;;
50433;SDS011;36361;38.954;-9.002;2023-06-26T01:57:58;8.75;;;3.60;;
50433;SDS011;36361;38.954;-9.002;2023-06-26T01:59:14;13.57;;;3.72;;
50433;SDS011;36361;38.954;-9.002;2023-06-26T02:00:22;7.35;;;2.95;;
50433;SDS011;36361;38.954;-9.002;2023-06-26T02:02:00;7.85;;;2.80;;
50433;SDS011;36361;38.954;-9.002;2023-06-26T02:03:16;13.65;;;4.40;;
50433;SDS011;36361;38.954;-9.002;2023-06-26T02:04:20;11.52;;;3.53;;
50433;SDS011;36361;38.954;-9.002;2023-06-26T02:05:24;8.20;;;3.08;;
50433;SDS011;36361;38.954;-9.002;2023-06-26T02:06:34;8.25;;;2.88;;
50433;SDS011;36361;38.954;-9.002;2023-06-26T02:07:47;10.57;;;3.58;;
50433;SDS011;36361;38.954;-9.002;2023-06-26T02:08:54;9.98;;;3.25;;
50433;SDS011;36361;38.954;-9.002;2023-06-26T02:10:02;9.77;;;3.28;;
50433;SDS011;36361;38.954;-9.002;2023-06-26T02:11:21;9.77;;;3.35;;
50433;SDS011;36361;38.954;-9.002;2023-06-26T02:12:32;12.20;;;3.85;;
50433;SDS011;36361;38.954;-9.002;2023-06-26T02:13:39;13.70;;;4.53;;
50433;SDS011;36361;38.954;-9.002;2023-06-26T02:15:04;12.85;;;3.88;;
50433;SDS011;36361;38.954;-9.002;2023-06-26T02:16:22;7.78;;;3.00;;
50433;SDS011;36361;38.954;-9.002;2023-06-26T02:17:43;16.50;;;4.32;;
50433;SDS011;36361;38.954;-9.002;2023-06-26T02:18:50;18.15;;;4.75;;
50433;SDS011;36361;38.954;-9.002;2023-06-26T02:20:09;12.23;;;3.90;;
50433;SDS011;36361;38.954;-9.002;2023-06-26T02:21:31;18.00;;;4.63;;
50433;SDS011;36361;38.954;-9.002;2023-06-26T02:22:47;13.27;;;4.28;;
50433;SDS011;36361;38.954;-9.002;2023-06-26T02:23:55;10.23;;;3.58;;
50433;SDS011;36361;38.954;-9.002;2023-06-26T02:25:10;15.10;;;5.32;;
50433;SDS011;36361;38.954;-9.002;2023-06-26T02:26:19;14.15;;;4.97;;
50433;SDS011;36361;38.954;-9.002;2023-06-26T02:27:22;10.45;;;3.78;;
50433;SDS011;36361;38.954;-9.002;2023-06-26T02:28:39;12.02;;;4.57;;
50433;SDS011;36361;38.954;-9.002;2023-06-26T02:29:54;13.48;;;4.85;;
50433;SDS011;36361;38.954;-9.002;2023-06-26T02:31:23;14.23;;;4.13;;
50433;SDS011;36361;38.954;-9.002;2023-06-26T02:32:29;11.45;;;3.85;;
50433;SDS011;36361;38.954;-9.002;2023-06-26T02:33:34;15.77;;;4.65;;
50433;SDS011;36361;38.954;-9.002;2023-06-26T02:34:51;9.90;;;3.45;;
50433;SDS011;36361;38.954;-9.002;2023-06-26T02:35:57;11.13;;;3.83;;
50433;SDS011;36361;38.954;-9.002;2023-06-26T02:37:07;10.82;;;3.72;;
50433;SDS011;36361;38.954;-9.002;2023-06-26T02:38:11;8.55;;;4.05;;
50433;SDS011;36361;38.954;-9.002;2023-06-26T02:39:24;11.52;;;4.55;;
50433;SDS011;36361;38.954;-9.002;2023-06-26T02:40:37;10.45;;;3.20;;
50433;SDS011;36361;38.954;-9.002;2023-06-26T02:41:38;11.93;;;4.15;;
50433;SDS011;36361;38.954;-9.002;2023-06-26T02:42:44;10.30;;;3.65;;
50433;SDS011;36361;38.954;-9.002;2023-06-26T02:43:51;9.57;;;3.70;;
50433;SDS011;36361;38.954;-9.002;2023-06-26T02:44:55;12.00;;;3.72;;
50433;SDS011;36361;38.954;-9.002;2023-06-26T02:45:59;7.18;;;2.72;;
50433;SDS011;36361;38.954;-9.002;2023-06-26T02:47:08;15.63;;;5.05;;
50433;SDS011;36361;38.954;-9.002;2023-06-26T02:48:16;7.15;;;3.17;;
50433;SDS011;36361;38.954;-9.002;2023-06-26T02:49:23;9.10;;;3.90;;
50433;SDS011;36361;38.954;-9.002;2023-06-26T02:50:30;11.25;;;4.43;;
50433;SDS011;36361;38.954;-9.002;2023-06-26T02:51:41;13.07;;;4.28;;
50433;SDS011;36361;38.954;-9.002;2023-06-26T02:52:55;9.30;;;3.50;;
50433;SDS011;36361;38.954;-9.002;2023-06-26T02:54:02;9.70;;;3.47;;
50433;SDS011;36361;38.954;-9.002;2023-06-26T02:55:06;8.23;;;3.50;;
50433;SDS011;36361;38.954;-9.002;2023-06-26T02:56:16;9.70;;;3.13;;
50433;SDS011;36361;38.954;-9.002;2023-06-26T02:57:23;7.60;;;2.92;;
50433;SDS011;36361;38.954;-9.002;2023-06-26T02:58:33;9.63;;;3.72;;
50433;SDS011;36361;38.954;-9.002;2023-06-26T02:59:46;9.20;;;3.53;;
50433;SDS011;36361;38.954;-9.002;2023-06-26T03:01:13;8.10;;;3.40;;
50433;SDS011;36361;38.954;-9.002;2023-06-26T03:02:29;12.63;;;3.92;;
50433;SDS011;36361;38.954;-9.002;2023-06-26T03:03:45;10.23;;;3.83;;
50433;SDS011;36361;38.954;-9.002;2023-06-26T03:04:55;13.48;;;4.75;;
50433;SDS011;36361;38.954;-9.002;2023-06-26T03:06:05;9.30;;;3.42;;
50433;SDS011;36361;38.954;-9.002;2023-06-26T03:07:21;9.95;;;3.83;;
50433;SDS011;36361;38.954;-9.002;2023-06-26T03:08:36;9.23;;;3.55;;
50433;SDS011;36361;38.954;-9.002;2023-06-26T03:09:51;8.48;;;3.22;;
50433;SDS011;36361;38.954;-9.002;2023-06-26T03:10:54;11.80;;;3.75;;
50433;SDS011;36361;38.954;-9.002;2023-06-26T03:12:01;11.88;;;4.25;;
50433;SDS011;36361;38.954;-9.002;2023-06-26T03:13:16;6.60;;;2.53;;
50433;SDS011;36361;38.954;-9.002;2023-06-26T03:14:23;13.38;;;4.65;;
50433;SDS011;36361;38.954;-9.002;2023-06-26T03:15:35;13.35;;;4.57;;
50433;SDS011;36361;38.954;-9.002;2023-06-26T03:16:42;5.95;;;3.10;;
50433;SDS011;36361;38.954;-9.002;2023-06-26T03:17:49;11.77;;;4.30;;
50433;SDS011;36361;38.954;-9.002;2023-06-26T03:19:03;6.70;;;2.97;;
50433;SDS011;36361;38.954;-9.002;2023-06-26T03:20:30;9.18;;;2.90;;
50433;SDS011;36361;38.954;-9.002;2023-06-26T03:21:37;9.23;;;3.33;;
50433;SDS011;36361;38.954;-9.002;2023-06-26T03:22:47;7.25;;;3.30;;
50433;SDS011;36361;38.954;-9.002;2023-06-26T03:23:51;9.05;;;3.65;;
50433;SDS011;36361;38.954;-9.002;2023-06-26T03:25:08;8.98;;;3.03;;
50433;SDS011;36361;38.954;-9.002;2023-06-26T03:26:12;6.75;;;2.95;;
50433;SDS011;36361;38.954;-9.002;2023-06-26T03:27:34;10.80;;;3.67;;
50433;SDS011;36361;38.954;-9.002;2023-06-26T03:28:48;7.90;;;3.42;;
50433;SDS011;36361;38.954;-9.002;2023-06-26T03:30:05;10.80;;;4.05;;
50433;SDS011;36361;38.954;-9.002;2023-06-26T03:31:24;12.20;;;4.28;;
50433;SDS011;36361;38.954;-9.002;2023-06-26T03:32:37;12.68;;;4.28;;
50433;SDS011;36361;38.954;-9.002;2023-06-26T03:33:46;12.98;;;3.97;;
50433;SDS011;36361;38.954;-9.002;2023-06-26T03:34:59;10.35;;;3.78;;
50433;SDS011;36361;38.954;-9.002;2023-06-26T03:36:15;8.70;;;3.13;;
50433;SDS011;36361;38.954;-9.002;2023-06-26T03:37:31;11.52;;;4.25;;
50433;SDS011;36361;38.954;-9.002;2023-06-26T03:39:08;11.63;;;4.63;;
50433;SDS011;36361;38.954;-9.002;2023-06-26T03:40:24;13.23;;;4.57;;
50433;SDS011;36361;38.954;-9.002;2023-06-26T03:41:34;8.98;;;3.70;;
50433;SDS011;36361;38.954;-9.002;2023-06-26T03:42:44;10.30;;;3.33;;
50433;SDS011;36361;38.954;-9.002;2023-06-26T03:44:25;7.65;;;2.88;;
50433;SDS011;36361;38.954;-9.002;2023-06-26T03:45:29;8.18;;;3.20;;
50433;SDS011;36361;38.954;-9.002;2023-06-26T03:46:36;7.47;;;3.17;;
50433;SDS011;36361;38.954;-9.002;2023-06-26T03:47:45;11.55;;;4.07;;
50433;SDS011;36361;38.954;-9.002;2023-06-26T03:48:58;9.10;;;3.60;;
50433;SDS011;36361;38.954;-9.002;2023-06-26T03:50:05;11.55;;;4.15;;
50433;SDS011;36361;38.954;-9.002;2023-06-26T03:51:35;17.40;;;5.43;;
50433;SDS011;36361;38.954;-9.002;2023-06-26T03:52:51;6.80;;;2.90;;
50433;SDS011;36361;38.954;-9.002;2023-06-26T03:54:02;9.93;;;3.33;;
50433;SDS011;36361;38.954;-9.002;2023-06-26T03:55:12;11.90;;;3.53;;
50433;SDS011;36361;38.954;-9.002;2023-06-26T03:56:19;8.13;;;3.35;;
50433;SDS011;36361;38.954;-9.002;2023-06-26T03:58:54;10.65;;;3.95;;
50433;SDS011;36361;38.954;-9.002;2023-06-26T04:00:14;13.63;;;4.75;;
50433;SDS011;36361;38.954;-9.002;2023-06-26T04:01:47;16.33;;;4.78;;
50433;SDS011;36361;38.954;-9.002;2023-06-26T04:02:54;12.07;;;4.13;;
50433;SDS011;36361;38.954;-9.002;2023-06-26T04:04:05;14.15;;;4.47;;
50433;SDS011;36361;38.954;-9.002;2023-06-26T04:05:11;9.35;;;3.55;;
50433;SDS011;36361;38.954;-9.002;2023-06-26T04:06:17;10.70;;;3.42;;
50433;SDS011;36361;38.954;-9.002;2023-06-26T04:07:34;10.50;;;4.03;;
50433;SDS011;36361;38.954;-9.002;2023-06-26T04:08:45;9.73;;;4.05;;
50433;SDS011;36361;38.954;-9.002;2023-06-26T04:09:55;12.15;;;5.20;;
50433;SDS011;36361;38.954;-9.002;2023-06-26T04:11:00;10.68;;;4.28;;
50433;SDS011;36361;38.954;-9.002;2023-06-26T04:12:13;6.93;;;3.42;;
50433;SDS011;36361;38.954;-9.002;2023-06-26T04:13:23;12.68;;;4.22;;
50433;SDS011;36361;38.954;-9.002;2023-06-26T04:14:30;12.00;;;4.53;;
50433;SDS011;36361;38.954;-9.002;2023-06-26T04:15:36;18.25;;;5.20;;
50433;SDS011;36361;38.954;-9.002;2023-06-26T04:16:54;12.38;;;4.43;;
50433;SDS011;36361;38.954;-9.002;2023-06-26T04:18:08;15.18;;;5.80;;
50433;SDS011;36361;38.954;-9.002;2023-06-26T04:19:15;15.02;;;5.68;;
50433;SDS011;36361;38.954;-9.002;2023-06-26T04:20:22;10.57;;;4.65;;
50433;SDS011;36361;38.954;-9.002;2023-06-26T04:21:31;9.65;;;4.68;;
50433;SDS011;36361;38.954;-9.002;2023-06-26T04:22:35;10.82;;;5.05;;
50433;SDS011;36361;38.954;-9.002;2023-06-26T04:23:57;16.73;;;5.65;;
50433;SDS011;36361;38.954;-9.002;2023-06-26T04:25:13;8.80;;;4.32;;
50433;SDS011;36361;38.954;-9.002;2023-06-26T04:26:38;9.50;;;4.15;;
50433;SDS011;36361;38.954;-9.002;2023-06-26T04:28:06;9.50;;;4.18;;
50433;SDS011;36361;38.954;-9.002;2023-06-26T04:29:13;12.25;;;5.15;;
50433;SDS011;36361;38.954;-9.002;2023-06-26T04:30:25;11.52;;;5.30;;
50433;SDS011;36361;38.954;-9.002;2023-06-26T04:32:06;9.88;;;4.50;;
50433;SDS011;36361;38.954;-9.002;2023-06-26T04:33:28;12.57;;;4.80;;
50433;SDS011;36361;38.954;-9.002;2023-06-26T04:34:34;13.60;;;5.32;;
50433;SDS011;36361;38.954;-9.002;2023-06-26T04:35:45;17.17;;;4.30;;
50433;SDS011;36361;38.954;-9.002;2023-06-26T04:36:55;8.32;;;4.45;;
50433;SDS011;36361;38.954;-9.002;2023-06-26T04:38:24;5.82;;;3.30;;
50433;SDS011;36361;38.954;-9.002;2023-06-26T04:39:37;8.38;;;3.65;;
50433;SDS011;36361;38.954;-9.002;2023-06-26T04:40:47;10.05;;;4.82;;
50433;SDS011;36361;38.954;-9.002;2023-06-26T04:41:51;12.98;;;5.32;;
50433;SDS011;36361;38.954;-9.002;2023-06-26T04:43:10;6.43;;;3.22;;
50433;SDS011;36361;38.954;-9.002;2023-06-26T04:44:31;12.73;;;5.10;;
50433;SDS011;36361;38.954;-9.002;2023-06-26T04:45:35;13.20;;;4.88;;
50433;SDS011;36361;38.954;-9.002;2023-06-26T04:46:48;11.88;;;4.57;;
50433;SDS011;36361;38.954;-9.002;2023-06-26T04:48:04;10.82;;;4.53;;
50433;SDS011;36361;38.954;-9.002;2023-06-26T04:49:17;10.52;;;4.05;;
50433;SDS011;36361;38.954;-9.002;2023-06-26T04:50:42;8.15;;;4.18;;
50433;SDS011;36361;38.954;-9.002;2023-06-26T04:51:43;12.15;;;4.55;;
50433;SDS011;36361;38.954;-9.002;2023-06-26T04:52:48;11.25;;;4.03;;
50433;SDS011;36361;38.954;-9.002;2023-06-26T04:53:52;7.43;;;3.58;;
50433;SDS011;36361;38.954;-9.002;2023-06-26T04:55:08;10.23;;;4.93;;
50433;SDS011;36361;38.954;-9.002;2023-06-26T04:56:15;13.00;;;4.57;;
50433;SDS011;36361;38.954;-9.002;2023-06-26T04:57:21;8.45;;;4.72;;
50433;SDS011;36361;38.954;-9.002;2023-06-26T04:58:44;11.63;;;5.18;;
50433;SDS011;36361;38.954;-9.002;2023-06-26T04:59:50;14.60;;;5.90;;
50433;SDS011;36361;38.954;-9.002;2023-06-26T05:01:00;9.75;;;4.32;;
50433;SDS011;36361;38.954;-9.002;2023-06-26T05:02:10;11.77;;;4.40;;
50433;SDS011;36361;38.954;-9.002;2023-06-26T05:03:26;12.77;;;4.95;;
50433;SDS011;36361;38.954;-9.002;2023-06-26T05:04:54;9.50;;;4.53;;
50433;SDS011;36361;38.954;-9.002;2023-06-26T05:06:01;8.45;;;3.60;;
50433;SDS011;36361;38.954;-9.002;2023-06-26T05:07:19;8.45;;;3.13;;
50433;SDS011;36361;38.954;-9.002;2023-06-26T05:08:35;13.52;;;5.38;;
50433;SDS011;36361;38.954;-9.002;2023-06-26T05:09:42;9.43;;;3.80;;
50433;SDS011;36361;38.954;-9.002;2023-06-26T05:10:58;13.90;;;4.75;;
50433;SDS011;36361;38.954;-9.002;2023-06-26T05:13:27;10.85;;;4.97;;
50433;SDS011;36361;38.954;-9.002;2023-06-26T05:14:43;7.53;;;3.60;;
50433;SDS011;36361;38.954;-9.002;2023-06-26T05:15:47;10.55;;;4.07;;
50433;SDS011;36361;38.954;-9.002;2023-06-26T05:16:52;9.27;;;4.03;;
50433;SDS011;36361;38.954;-9.002;2023-06-26T05:17:56;10.02;;;4.03;;
50433;SDS011;36361;38.954;-9.002;2023-06-26T05:20:34;8.05;;;4.00;;
50433;SDS011;36361;38.954;-9.002;2023-06-26T05:21:41;7.05;;;3.22;;
50433;SDS011;36361;38.954;-9.002;2023-06-26T05:22:55;15.25;;;5.10;;
50433;SDS011;36361;38.954;-9.002;2023-06-26T05:24:08;10.73;;;4.88;;
50433;SDS011;36361;38.954;-9.002;2023-06-26T05:25:22;9.70;;;4.22;;
50433;SDS011;36361;38.954;-9.002;2023-06-26T05:26:29;9.65;;;4.18;;
50433;SDS011;36361;38.954;-9.002;2023-06-26T05:27:42;7.82;;;3.47;;
50433;SDS011;36361;38.954;-9.002;2023-06-26T05:28:56;8.43;;;4.28;;
50433;SDS011;36361;38.954;-9.002;2023-06-26T05:30:03;8.27;;;3.85;;
50433;SDS011;36361;38.954;-9.002;2023-06-26T05:31:22;8.30;;;3.90;;
50433;SDS011;36361;38.954;-9.002;2023-06-26T05:32:32;9.52;;;4.28;;
50433;SDS011;36361;38.954;-9.002;2023-06-26T05:33:52;13.63;;;5.85;;
50433;SDS011;36361;38.954;-9.002;2023-06-26T05:35:02;10.98;;;4.78;;
50433;SDS011;36361;38.954;-9.002;2023-06-26T05:36:12;8.85;;;4.50;;
50433;SDS011;36361;38.954;-9.002;2023-06-26T05:37:17;9.98;;;4.85;;
50433;SDS011;36361;38.954;-9.002;2023-06-26T05:38:35;13.10;;;4.85;;
50433;SDS011;36361;38.954;-9.002;2023-06-26T05:41:15;9.23;;;3.92;;
50433;SDS011;36361;38.954;-9.002;2023-06-26T05:42:24;8.85;;;4.28;;
50433;SDS011;36361;38.954;-9.002;2023-06-26T05:43:34;11.13;;;4.93;;
50433;SDS011;36361;38.954;-9.002;2023-06-26T05:44:49;13.88;;;5.43;;
50433;SDS011;36361;38.954;-9.002;2023-06-26T05:45:57;17.30;;;6.32;;
50433;SDS011;36361;38.954;-9.002;2023-06-26T05:47:19;10.85;;;4.80;;
50433;SDS011;36361;38.954;-9.002;2023-06-26T05:48:24;10.65;;;4.45;;
50433;SDS011;36361;38.954;-9.002;2023-06-26T05:49:34;10.68;;;4.97;;
50433;SDS011;36361;38.954;-9.002;2023-06-26T05:50:47;11.88;;;5.32;;
50433;SDS011;36361;38.954;-9.002;2023-06-26T05:51:57;10.77;;;4.90;;
50433;SDS011;36361;38.954;-9.002;2023-06-26T05:53:03;15.27;;;5.85;;
50433;SDS011;36361;38.954;-9.002;2023-06-26T05:55:35;7.85;;;4.43;;
50433;SDS011;36361;38.954;-9.002;2023-06-26T05:56:52;12.13;;;5.28;;
50433;SDS011;36361;38.954;-9.002;2023-06-26T05:57:57;11.55;;;4.93;;
50433;SDS011;36361;38.954;-9.002;2023-06-26T05:59:05;11.77;;;4.30;;
50433;SDS011;36361;38.954;-9.002;2023-06-26T06:00:11;7.70;;;4.15;;
50433;SDS011;36361;38.954;-9.002;2023-06-26T06:01:42;15.35;;;6.57;;
50433;SDS011;36361;38.954;-9.002;2023-06-26T06:02:54;11.98;;;5.53;;
50433;SDS011;36361;38.954;-9.002;2023-06-26T06:04:10;14.70;;;6.50;;
50433;SDS011;36361;38.954;-9.002;2023-06-26T06:05:26;14.00;;;6.85;;
50433;SDS011;36361;38.954;-9.002;2023-06-26T06:06:32;14.15;;;5.07;;
50433;SDS011;36361;38.954;-9.002;2023-06-26T06:07:36;9.98;;;5.47;;
50433;SDS011;36361;38.954;-9.002;2023-06-26T06:08:43;15.65;;;7.15;;
50433;SDS011;36361;38.954;-9.002;2023-06-26T06:09:47;13.63;;;5.85;;
50433;SDS011;36361;38.954;-9.002;2023-06-26T06:10:50;11.68;;;6.07;;
50433;SDS011;36361;38.954;-9.002;2023-06-26T06:11:58;10.93;;;5.20;;
50433;SDS011;36361;38.954;-9.002;2023-06-26T06:13:09;11.98;;;5.75;;
50433;SDS011;36361;38.954;-9.002;2023-06-26T06:14:12;14.32;;;7.10;;
50433;SDS011;36361;38.954;-9.002;2023-06-26T06:15:19;15.43;;;6.25;;
50433;SDS011;36361;38.954;-9.002;2023-06-26T06:16:23;11.25;;;4.88;;
50433;SDS011;36361;38.954;-9.002;2023-06-26T06:17:29;13.27;;;5.95;;
50433;SDS011;36361;38.954;-9.002;2023-06-26T06:18:42;10.68;;;5.65;;
50433;SDS011;36361;38.954;-9.002;2023-06-26T06:19:46;12.25;;;5.78;;
50433;SDS011;36361;38.954;-9.002;2023-06-26T06:20:50;10.38;;;5.75;;
50433;SDS011;36361;38.954;-9.002;2023-06-26T06:22:08;11.77;;;5.60;;
50433;SDS011;36361;38.954;-9.002;2023-06-26T06:23:27;11.18;;;5.13;;
50433;SDS011;36361;38.954;-9.002;2023-06-26T06:24:48;13.43;;;6.47;;
50433;SDS011;36361;38.954;-9.002;2023-06-26T06:26:01;7.38;;;4.68;;
50433;SDS011;36361;38.954;-9.002;2023-06-26T06:27:07;18.75;;;6.88;;
50433;SDS011;36361;38.954;-9.002;2023-06-26T06:28:11;10.35;;;5.13;;
50433;SDS011;36361;38.954;-9.002;2023-06-26T06:29:18;12.68;;;6.40;;
50433;SDS011;36361;38.954;-9.002;2023-06-26T06:30:25;16.60;;;6.93;;
50433;SDS011;36361;38.954;-9.002;2023-06-26T06:31:47;17.17;;;5.72;;
50433;SDS011;36361;38.954;-9.002;2023-06-26T06:32:48;12.77;;;5.53;;
50433;SDS011;36361;38.954;-9.002;2023-06-26T06:33:55;9.25;;;4.80;;
50433;SDS011;36361;38.954;-9.002;2023-06-26T06:35:05;9.32;;;4.32;;
50433;SDS011;36361;38.954;-9.002;2023-06-26T06:36:38;10.35;;;4.97;;
50433;SDS011;36361;38.954;-9.002;2023-06-26T06:37:42;8.20;;;4.32;;
50433;SDS011;36361;38.954;-9.002;2023-06-26T06:38:48;13.63;;;5.15;;
50433;SDS011;36361;38.954;-9.002;2023-06-26T06:40:08;9.63;;;4.07;;
50433;SDS011;36361;38.954;-9.002;2023-06-26T06:41:25;7.82;;;4.30;;
50433;SDS011;36361;38.954;-9.002;2023-06-26T06:42:51;9.05;;;4.90;;
50433;SDS011;36361;38.954;-9.002;2023-06-26T06:44:15;11.40;;;5.43;;
50433;SDS011;36361;38.954;-9.002;2023-06-26T06:45:25;7.10;;;4.53;;
50433;SDS011;36361;38.954;-9.002;2023-06-26T06:46:29;11.55;;;5.32;;
50433;SDS011;36361;38.954;-9.002;2023-06-26T06:47:33;17.27;;;6.15;;
50433;SDS011;36361;38.954;-9.002;2023-06-26T06:48:55;7.68;;;4.60;;
50433;SDS011;36361;38.954;-9.002;2023-06-26T06:50:06;12.45;;;5.63;;
50433;SDS011;36361;38.954;-9.002;2023-06-26T06:51:18;9.15;;;4.50;;
50433;SDS011;36361;38.954;-9.002;2023-06-26T06:52:22;7.20;;;4.68;;
50433;SDS011;36361;38.954;-9.002;2023-06-26T06:53:23;10.57;;;5.00;;
50433;SDS011;36361;38.954;-9.002;2023-06-26T06:54:55;12.10;;;5.20;;
50433;SDS011;36361;38.954;-9.002;2023-06-26T06:56:24;9.52;;;4.85;;
50433;SDS011;36361;38.954;-9.002;2023-06-26T06:57:32;8.95;;;4.72;;
50433;SDS011;36361;38.954;-9.002;2023-06-26T06:58:37;10.45;;;5.45;;
50433;SDS011;36361;38.954;-9.002;2023-06-26T06:59:43;12.75;;;5.50;;
50433;SDS011;36361;38.954;-9.002;2023-06-26T07:00:48;12.77;;;6.10;;
50433;SDS011;36361;38.954;-9.002;2023-06-26T07:02:07;10.00;;;5.50;;
50433;SDS011;36361;38.954;-9.002;2023-06-26T07:03:20;14.32;;;5.43;;
50433;SDS011;36361;38.954;-9.002;2023-06-26T07:04:51;17.50;;;6.10;;
50433;SDS011;36361;38.954;-9.002;2023-06-26T07:06:10;17.38;;;6.50;;
50433;SDS011;36361;38.954;-9.002;2023-06-26T07:07:17;18.75;;;6.43;;
50433;SDS011;36361;38.954;-9.002;2023-06-26T07:08:31;15.77;;;6.38;;
50433;SDS011;36361;38.954;-9.002;2023-06-26T07:09:38;13.80;;;6.55;;
50433;SDS011;36361;38.954;-9.002;2023-06-26T07:10:51;14.95;;;6.90;;
50433;SDS011;36361;38.954;-9.002;2023-06-26T07:11:57;14.68;;;6.78;;
50433;SDS011;36361;38.954;-9.002;2023-06-26T07:13:04;16.85;;;6.47;;
50433;SDS011;36361;38.954;-9.002;2023-06-26T07:14:11;15.77;;;6.45;;
50433;SDS011;36361;38.954;-9.002;2023-06-26T07:15:21;13.80;;;6.00;;
50433;SDS011;36361;38.954;-9.002;2023-06-26T07:16:25;14.35;;;6.03;;
50433;SDS011;36361;38.954;-9.002;2023-06-26T07:17:28;16.45;;;6.43;;
50433;SDS011;36361;38.954;-9.002;2023-06-26T07:18:36;15.60;;;6.20;;
50433;SDS011;36361;38.954;-9.002;2023-06-26T07:19:47;11.90;;;6.18;;
50433;SDS011;36361;38.954;-9.002;2023-06-26T07:20:54;13.98;;;5.90;;